createdAt,value
2022-07-27T00:03:01.448Z,98928.25
2022-07-27T00:06:04.947Z,98929.59
2022-07-27T00:09:08.495Z,98926.13
2022-07-27T00:12:12.186Z,98932.38
2022-07-27T00:15:17.921Z,98935.56
2022-07-27T00:18:22.919Z,98943.06
2022-07-27T00:21:26.867Z,98940.41
2022-07-27T00:24:30.281Z,98937.22
2022-07-27T00:27:33.730Z,98944.72
2022-07-27T00:30:37.031Z,98944.97
2022-07-27T00:33:41.695Z,98941.78
2022-07-27T00:36:45.007Z,98945.50
2022-07-27T00:39:51.357Z,98953.00
2022-07-27T00:46:25.219Z,98949.19
2022-07-27T00:49:30.036Z,98950.75
2022-07-27T00:52:33.570Z,98959.31
2022-07-27T00:55:37.249Z,98952.38
2022-07-27T00:58:40.842Z,98954.53
2022-07-27T01:01:44.951Z,98959.31
2022-07-27T01:04:49.680Z,98958.28
2022-07-27T01:07:57.443Z,98951.31
2022-07-27T01:11:01.041Z,98949.81
2022-07-27T01:14:05.642Z,98953.00
2022-07-27T01:17:08.990Z,98948.94
2022-07-27T01:20:13.895Z,98959.91
2022-07-27T01:23:18.654Z,98958.91
2022-07-27T01:26:22.043Z,98958.38
2022-07-27T01:29:25.380Z,98963.44
2022-07-27T01:32:28.667Z,98964.81
2022-07-27T01:35:32.275Z,98963.44
2022-07-27T01:38:36.973Z,98971.72
2022-07-27T01:41:40.203Z,98961.88
2022-07-27T01:44:43.435Z,98961.06
2022-07-27T01:47:46.774Z,98962.16
2022-07-27T01:50:51.262Z,98961.59
2022-07-27T01:53:56.098Z,98968.03
2022-07-27T01:56:59.319Z,98955.16
2022-07-27T02:00:02.672Z,98955.13
2022-07-27T02:03:15.449Z,98962.66
2022-07-27T02:06:18.746Z,98964.53
2022-07-27T02:09:25.892Z,98959.41
2022-07-27T02:12:37.046Z,98965.81
2022-07-27T02:15:42.971Z,98964.69
2022-07-27T02:22:22.209Z,98965.66
2022-07-27T02:25:26.795Z,98966.75
2022-07-27T02:28:29.947Z,98969.09
2022-07-27T02:31:33.267Z,98964.59
2022-07-27T02:34:36.452Z,98964.84
2022-07-27T02:37:39.718Z,98971.69
2022-07-27T02:40:44.408Z,98967.38
2022-07-27T02:43:47.732Z,98962.56
2022-07-27T02:46:51.127Z,98966.28
2022-07-27T02:49:54.499Z,98966.75
2022-07-27T02:52:57.700Z,98967.91
2022-07-27T02:56:02.394Z,98976.16
2022-07-27T02:59:05.687Z,98978.75
2022-07-27T03:02:08.965Z,98979.91
2022-07-27T03:05:12.760Z,98986.22
2022-07-27T03:08:16.059Z,98990.50
2022-07-27T03:11:20.770Z,98980.88
2022-07-27T03:14:24.086Z,98987.00
2022-07-27T03:17:27.389Z,98986.63
2022-07-27T03:20:30.648Z,98997.81
2022-07-27T03:23:33.907Z,98986.84
2022-07-27T03:26:38.575Z,99003.34
2022-07-27T03:29:41.836Z,99001.88
2022-07-27T03:32:45.075Z,99007.22
2022-07-27T03:35:48.269Z,99020.13
2022-07-27T03:38:51.561Z,99017.19
2022-07-27T03:41:56.085Z,99021.03
2022-07-27T03:44:59.439Z,99017.31
2022-07-27T03:48:02.794Z,99022.44
2022-07-27T03:51:06.057Z,99027.78
2022-07-27T03:54:09.365Z,99026.13
2022-07-27T03:57:14.109Z,99034.69
2022-07-27T04:00:17.873Z,99037.59
2022-07-27T04:03:21.158Z,99037.22
2022-07-27T04:06:25.712Z,99040.41
2022-07-27T04:09:29.147Z,99034.41
2022-07-27T04:12:37.455Z,99047.78
2022-07-27T04:15:40.914Z,99041.19
2022-07-27T04:18:44.351Z,99048.47
2022-07-27T04:21:47.637Z,99049.28
2022-07-27T04:24:50.896Z,99049.78
2022-07-27T04:27:55.595Z,99055.69
2022-07-27T04:30:58.928Z,99055.72
2022-07-27T04:34:02.302Z,99057.84
2022-07-27T04:37:06.127Z,99063.38
2022-07-27T04:40:10.642Z,99056.75
2022-07-27T04:43:15.333Z,99068.00
2022-07-27T04:46:18.661Z,99069.53
2022-07-27T04:49:22.160Z,99072.09
2022-07-27T04:52:26.642Z,99068.22
2022-07-27T04:55:30.145Z,99074.06
2022-07-27T04:58:34.921Z,99072.50
2022-07-27T05:01:38.625Z,99076.31
2022-07-27T05:04:42.052Z,99088.66
2022-07-27T05:07:45.400Z,99084.06
2022-07-27T05:10:48.837Z,99087.47
2022-07-27T05:13:53.599Z,99084.81
2022-07-27T05:16:56.984Z,99081.31
2022-07-27T05:20:01.389Z,99092.03
2022-07-27T05:23:04.956Z,99096.38
2022-07-27T05:26:08.251Z,99098.25
2022-07-27T05:29:13.243Z,99095.81
2022-07-27T05:32:17.290Z,99096.84
2022-07-27T05:35:20.820Z,99096.97
2022-07-27T05:38:24.238Z,99102.19
2022-07-27T05:41:28.368Z,99104.75
2022-07-27T05:44:33.223Z,99109.25
2022-07-27T05:47:36.673Z,99117.00
2022-07-27T05:50:39.989Z,99109.75
2022-07-27T05:53:43.481Z,99111.44
2022-07-27T05:56:47.236Z,99114.06
2022-07-27T05:59:54.655Z,99106.72
2022-07-27T06:02:58.048Z,99106.19
2022-07-27T06:06:18.854Z,99107.78
2022-07-27T06:09:22.200Z,99107.63
2022-07-27T06:12:27.658Z,99103.84
2022-07-27T06:15:35.560Z,99101.25
2022-07-27T06:18:39.084Z,99097.69
2022-07-27T06:21:42.419Z,99096.50
2022-07-27T06:24:45.727Z,99097.53
2022-07-27T06:27:49.350Z,99096.16
2022-07-27T06:30:54.722Z,99099.22
2022-07-27T06:33:58.341Z,99098.59
2022-07-27T06:37:05.463Z,99102.00
2022-07-27T06:40:09.667Z,99100.78
2022-07-27T06:43:12.994Z,99099.50
2022-07-27T06:46:17.736Z,99099.38
2022-07-27T06:49:21.253Z,99097.91
2022-07-27T06:52:24.723Z,99087.66
2022-07-27T06:55:28.128Z,99089.59
2022-07-27T06:58:32.696Z,99083.63
2022-07-27T07:01:37.431Z,99081.00
2022-07-27T07:04:40.766Z,99066.75
2022-07-27T07:07:44.133Z,99069.03
2022-07-27T07:10:47.524Z,99070.47
2022-07-27T07:13:50.899Z,99075.16
2022-07-27T07:16:55.750Z,99068.22
2022-07-27T07:19:59.177Z,99079.16
2022-07-27T07:23:02.836Z,99068.75
2022-07-27T07:26:06.293Z,99070.91
2022-07-27T07:29:10.003Z,99065.38
2022-07-27T07:32:14.858Z,99062.03
2022-07-27T07:35:18.322Z,99057.28
2022-07-27T07:38:21.584Z,99063.44
2022-07-27T07:41:24.978Z,99064.34
2022-07-27T07:44:28.417Z,99057.78
2022-07-27T07:47:33.183Z,99052.44
2022-07-27T07:50:36.471Z,99048.72
2022-07-27T07:53:41.633Z,99046.47
2022-07-27T07:56:45.336Z,99043.47
2022-07-27T07:59:48.706Z,99046.34
2022-07-27T08:02:55.699Z,99046.81
2022-07-27T08:05:59.102Z,99050.09
2022-07-27T08:09:03.524Z,99050.03
2022-07-27T08:12:07.889Z,99043.47
2022-07-27T08:15:12.497Z,99042.00
2022-07-27T08:18:17.271Z,99037.56
2022-07-27T08:21:20.670Z,99044.19
2022-07-27T08:24:24.072Z,99038.13
2022-07-27T08:27:27.394Z,99034.78
2022-07-27T08:30:32.367Z,99028.84
2022-07-27T08:33:40.920Z,99029.13
2022-07-27T08:36:44.448Z,99031.19
2022-07-27T08:43:12.180Z,99027.56
2022-07-27T08:46:19.341Z,99019.16
2022-07-27T08:49:41.370Z,99021.56
2022-07-27T08:52:46.329Z,99024.59
2022-07-27T08:55:49.969Z,99021.06
2022-07-27T08:58:53.373Z,99022.84
2022-07-27T09:01:56.773Z,99015.94
2022-07-27T09:05:01.898Z,99016.81
2022-07-27T09:08:10.936Z,99010.22
2022-07-27T09:11:16.298Z,99002.84
2022-07-27T09:14:19.672Z,99009.41
2022-07-27T09:21:10.418Z,99004.66
2022-07-27T09:24:45.407Z,99001.31
2022-07-27T09:27:39.759Z,98987.34
2022-07-27T09:30:44.197Z,98987.59
2022-07-27T09:33:49.364Z,98993.28
2022-07-27T09:36:56.000Z,98992.56
2022-07-27T09:40:12.765Z,98997.84
2022-07-27T09:44:12.457Z,98992.84
2022-07-27T09:46:44.011Z,98981.22
2022-07-27T09:49:47.416Z,98983.75
2022-07-27T09:52:52.238Z,98979.28
2022-07-27T09:56:00.820Z,98978.31
2022-07-27T09:59:05.474Z,98976.47
2022-07-27T10:02:09.033Z,98973.16
2022-07-27T10:05:14.080Z,98977.53
2022-07-27T10:08:20.418Z,98968.34
2022-07-27T10:11:25.055Z,98975.31
2022-07-27T10:14:28.590Z,98966.13
2022-07-27T10:17:32.219Z,98965.56
2022-07-27T10:20:39.587Z,98963.94
2022-07-27T10:23:55.528Z,98959.88
2022-07-27T10:26:59.528Z,98967.22
2022-07-27T10:30:06.714Z,98961.75
2022-07-27T10:33:17.468Z,98960.44
2022-07-27T10:36:51.961Z,98956.78
2022-07-27T10:40:12.123Z,98959.66
2022-07-27T10:43:20.492Z,98947.91
2022-07-27T10:46:23.858Z,98946.72
2022-07-27T10:49:30.198Z,98945.44
2022-07-27T10:52:43.978Z,98947.91
2022-07-27T10:55:49.771Z,98929.53
2022-07-27T10:58:53.340Z,98937.16
2022-07-27T11:01:58.601Z,98937.91
2022-07-27T11:05:05.950Z,98931.09
2022-07-27T11:08:36.593Z,98931.44
2022-07-27T11:11:34.716Z,98934.53
2022-07-27T11:14:46.696Z,98927.38
2022-07-27T11:18:00.481Z,98926.38
2022-07-27T11:21:25.919Z,98919.44
2022-07-27T11:24:30.252Z,98919.09
2022-07-27T11:27:46.492Z,98914.94
2022-07-27T11:30:50.455Z,98915.50
2022-07-27T11:33:56.458Z,98912.72
2022-07-27T11:37:02.221Z,98911.22
2022-07-27T11:40:28.177Z,98908.81
2022-07-27T11:43:39.135Z,98898.06
2022-07-27T11:46:44.533Z,98900.78
2022-07-27T11:49:48.626Z,98896.94
2022-07-27T11:53:01.659Z,98888.66
2022-07-27T11:56:05.738Z,98891.16
2022-07-27T11:59:13.974Z,98881.25
2022-07-27T12:02:20.482Z,98874.56
2022-07-27T12:05:24.173Z,98875.78
2022-07-27T12:08:28.388Z,98873.63
2022-07-27T12:11:45.454Z,98869.94
2022-07-27T12:14:54.300Z,98873.06
2022-07-27T12:17:58.239Z,98869.28
2022-07-27T12:21:01.670Z,98857.94
2022-07-27T12:24:05.662Z,98856.59
2022-07-27T12:27:14.172Z,98859.06
2022-07-27T12:30:20.192Z,98859.44
2022-07-27T12:33:28.733Z,98858.41
2022-07-27T12:36:32.735Z,98850.97
2022-07-27T12:39:36.198Z,98853.09
2022-07-27T12:42:39.567Z,98842.78
2022-07-27T12:45:45.009Z,98850.84
2022-07-27T12:48:48.491Z,98844.16
2022-07-27T12:51:52.168Z,98834.91
2022-07-27T12:54:55.761Z,98826.34
2022-07-27T12:57:59.146Z,98836.81
2022-07-27T13:01:04.019Z,98833.47
2022-07-27T13:04:07.564Z,98834.00
2022-07-27T13:07:10.872Z,98823.97
2022-07-27T13:10:14.572Z,98813.63
2022-07-27T13:13:18.020Z,98813.09
2022-07-27T13:16:22.808Z,98807.03
2022-07-27T13:19:26.228Z,98811.34
2022-07-27T13:22:30.131Z,98812.34
2022-07-27T13:25:33.759Z,98804.88
2022-07-27T13:28:37.699Z,98810.69
2022-07-27T13:31:49.006Z,98807.59
2022-07-27T13:34:54.618Z,98804.22
2022-07-27T13:37:58.007Z,98810.56
2022-07-27T13:41:01.453Z,98800.84
2022-07-27T13:44:05.376Z,98790.97
2022-07-27T13:47:10.324Z,98792.28
2022-07-27T13:50:19.358Z,98785.50
2022-07-27T13:53:23.220Z,98783.81
2022-07-27T13:56:30.078Z,98786.22
2022-07-27T13:59:33.420Z,98786.25
2022-07-27T14:02:38.246Z,98781.06
2022-07-27T14:05:48.803Z,98783.06
2022-07-27T14:08:53.201Z,98783.13
2022-07-27T14:11:56.886Z,98778.63
2022-07-27T14:15:00.300Z,98769.66
2022-07-27T14:18:05.531Z,98762.97
2022-07-27T14:21:10.345Z,98770.03
2022-07-27T14:24:13.626Z,98762.63
2022-07-27T14:27:17.096Z,98758.56
2022-07-27T14:30:21.201Z,98755.81
2022-07-27T14:33:29.852Z,98752.56
2022-07-27T14:36:40.172Z,98746.59
2022-07-27T14:39:43.505Z,98751.28
2022-07-27T14:42:47.066Z,98743.09
2022-07-27T14:45:50.700Z,98734.34
2022-07-27T14:49:10.680Z,98742.72
2022-07-27T14:52:14.560Z,98737.56
2022-07-27T14:55:18.074Z,98736.63
2022-07-27T14:58:21.406Z,98739.22
2022-07-27T15:01:24.979Z,98736.91
2022-07-27T15:04:30.299Z,98738.75
2022-07-27T15:07:34.319Z,98731.47
2022-07-27T15:10:37.648Z,98730.16
2022-07-27T15:13:41.014Z,98729.88
2022-07-27T15:16:44.660Z,98730.88
2022-07-27T15:19:49.391Z,98729.97
2022-07-27T15:22:52.816Z,98724.91
2022-07-27T15:25:56.135Z,98717.88
2022-07-27T15:28:59.426Z,98713.50
2022-07-27T15:32:02.793Z,98720.53
2022-07-27T15:35:08.294Z,98714.69
2022-07-27T15:38:11.709Z,98721.84
2022-07-27T15:41:15.570Z,98722.47
2022-07-27T15:44:21.057Z,98733.19
2022-07-27T15:47:24.386Z,98731.72
2022-07-27T15:50:29.244Z,98739.44
2022-07-27T15:53:32.561Z,98736.63
2022-07-27T15:56:35.865Z,98737.44
2022-07-27T15:59:39.189Z,98736.50
2022-07-27T16:02:42.615Z,98733.81
2022-07-27T16:05:48.979Z,98726.34
2022-07-27T16:08:52.369Z,98734.13
2022-07-27T16:11:55.639Z,98727.31
2022-07-27T16:14:58.950Z,98723.16
2022-07-27T16:18:02.419Z,98716.09
2022-07-27T16:21:07.406Z,98723.81
2022-07-27T16:24:11.212Z,98717.13
2022-07-27T16:27:14.558Z,98725.41
2022-07-27T16:30:20.577Z,98725.28
2022-07-27T16:33:25.672Z,98722.78
2022-07-27T16:36:38.211Z,98718.31
2022-07-27T16:39:42.774Z,98718.63
2022-07-27T16:42:46.157Z,98723.50
2022-07-27T16:45:49.479Z,98727.44
2022-07-27T16:48:52.826Z,98727.75
2022-07-27T16:51:57.568Z,98731.19
2022-07-27T16:55:00.853Z,98733.97
2022-07-27T16:58:05.347Z,98733.94
2022-07-27T17:01:10.002Z,98734.94
2022-07-27T17:04:26.007Z,98739.22
2022-07-27T17:07:30.740Z,98743.84
2022-07-27T17:10:34.059Z,98739.97
2022-07-27T17:13:38.666Z,98746.72
2022-07-27T17:16:51.741Z,98747.81
2022-07-27T17:19:55.571Z,98753.25
2022-07-27T17:23:00.335Z,98749.28
2022-07-27T17:26:05.491Z,98756.56
2022-07-27T17:29:08.821Z,98748.41
2022-07-27T17:32:12.406Z,98754.16
2022-07-27T17:35:16.796Z,98750.31
2022-07-27T17:38:22.322Z,98751.28
2022-07-27T17:41:25.748Z,98751.34
2022-07-27T17:44:29.126Z,98751.84
2022-07-27T17:47:32.493Z,98748.06
2022-07-27T17:50:36.304Z,98760.66
2022-07-27T17:53:41.040Z,98759.94
2022-07-27T17:56:44.423Z,98762.63
2022-07-27T17:59:47.795Z,98762.00
2022-07-27T18:02:51.123Z,98775.41
2022-07-27T18:05:54.476Z,98782.44
2022-07-27T18:08:59.317Z,98784.88
2022-07-27T18:12:02.694Z,98786.97
2022-07-27T18:15:24.123Z,98795.22
2022-07-27T18:18:28.786Z,98797.81
2022-07-27T18:21:32.259Z,98819.03
2022-07-27T18:24:37.026Z,98830.50
2022-07-27T18:27:41.028Z,98843.09
2022-07-27T18:30:46.071Z,98882.25
2022-07-27T18:33:50.959Z,98884.56
2022-07-27T18:36:54.958Z,98887.38
2022-07-27T18:39:59.735Z,98890.25
2022-07-27T18:43:03.287Z,98905.97
2022-07-27T18:46:07.211Z,98904.06
2022-07-27T18:49:13.942Z,98898.44
2022-07-27T18:52:17.829Z,98905.06
2022-07-27T18:55:23.091Z,98910.00
2022-07-27T18:58:27.796Z,98912.38
2022-07-27T19:01:31.245Z,98930.88
2022-07-27T19:04:35.002Z,98926.78
2022-07-27T19:07:38.793Z,98932.75
2022-07-27T19:10:45.814Z,98924.19
2022-07-27T19:13:49.173Z,98929.97
2022-07-27T19:16:52.867Z,98925.78
2022-07-27T19:19:56.313Z,98931.16
2022-07-27T19:23:00.883Z,98932.56
2022-07-27T19:26:10.437Z,98932.53
2022-07-27T19:29:17.222Z,98940.13
2022-07-27T19:32:20.734Z,98943.69
2022-07-27T19:35:24.037Z,98944.28
2022-07-27T19:38:27.601Z,98965.78
2022-07-27T19:41:32.393Z,98992.69
2022-07-27T19:44:35.739Z,98996.91
2022-07-27T19:47:39.093Z,98999.97
2022-07-27T19:50:42.998Z,98993.06
2022-07-27T19:53:50.242Z,98977.06
2022-07-27T19:57:13.268Z,98984.56
2022-07-27T20:00:37.960Z,99000.47
2022-07-27T20:03:54.586Z,99008.13
2022-07-27T20:06:58.440Z,99015.75
2022-07-27T20:10:01.809Z,99021.44
2022-07-27T20:13:06.937Z,99021.97
2022-07-27T20:16:10.379Z,99024.22
2022-07-27T20:19:13.993Z,99029.22
2022-07-27T20:22:17.609Z,99041.97
2022-07-27T20:25:21.080Z,99046.66
2022-07-27T20:28:25.811Z,99041.50
2022-07-27T20:31:29.599Z,99046.63
2022-07-27T20:34:32.948Z,99052.47
2022-07-27T20:37:36.568Z,99044.34
2022-07-27T20:40:39.983Z,99028.56
2022-07-27T20:43:44.753Z,99038.16
2022-07-27T20:46:48.154Z,99048.63
2022-07-27T20:49:51.554Z,99052.56
2022-07-27T20:52:54.993Z,99046.53
2022-07-27T20:55:58.250Z,99042.34
2022-07-27T20:59:03.280Z,99038.28
2022-07-27T21:02:11.318Z,99032.44
2022-07-27T21:05:14.679Z,99037.75
2022-07-27T21:08:17.945Z,99034.88
2022-07-27T21:11:21.463Z,99030.53
2022-07-27T21:14:26.207Z,99032.28
2022-07-27T21:17:29.999Z,99043.75
2022-07-27T21:20:33.331Z,99037.81
2022-07-27T21:23:54.264Z,99032.94
2022-07-27T21:27:00.903Z,99036.38
2022-07-27T21:30:10.308Z,99035.94
2022-07-27T21:33:13.781Z,99044.16
2022-07-27T21:36:17.348Z,99046.09
2022-07-27T21:39:21.718Z,99041.94
2022-07-27T21:42:25.029Z,99057.22
2022-07-27T21:45:29.737Z,99047.34
2022-07-27T21:48:33.482Z,99055.81
2022-07-27T21:51:36.997Z,99048.22
2022-07-27T21:54:40.572Z,99050.44
2022-07-27T21:57:43.968Z,99065.84
2022-07-27T22:00:48.887Z,99058.25
2022-07-27T22:03:52.446Z,99066.66
2022-07-27T22:06:55.927Z,99064.59
2022-07-27T22:09:59.229Z,99059.09
2022-07-27T22:13:03.781Z,99070.25
2022-07-27T22:16:09.286Z,99072.50
2022-07-27T22:19:12.794Z,99074.75
2022-07-27T22:22:16.085Z,99066.81
2022-07-27T22:25:20.468Z,99059.66
2022-07-27T22:28:26.032Z,99064.66
2022-07-27T22:31:31.206Z,99068.94
2022-07-27T22:34:35.055Z,99056.41
2022-07-27T22:37:38.713Z,99055.09
2022-07-27T22:40:42.192Z,99057.88
2022-07-27T22:43:45.527Z,99052.63
2022-07-27T22:46:50.584Z,99062.09
2022-07-27T22:49:53.870Z,99058.63
2022-07-27T22:52:57.810Z,99058.75
2022-07-27T22:56:01.250Z,99073.34
2022-07-27T22:59:04.585Z,99065.50
2022-07-27T23:02:09.776Z,99063.34
2022-07-27T23:05:13.303Z,99079.28
2022-07-27T23:08:16.630Z,99078.47
2022-07-27T23:11:19.969Z,99074.38
2022-07-27T23:14:26.035Z,99086.00
2022-07-27T23:17:31.502Z,99094.34
2022-07-27T23:20:34.980Z,99090.53
2022-07-27T23:23:39.947Z,99096.72
2022-07-27T23:26:54.443Z,99109.72
2022-07-27T23:29:57.852Z,99103.56
2022-07-27T23:33:02.607Z,99110.34
2022-07-27T23:36:06.891Z,99107.50
2022-07-27T23:39:10.187Z,99107.66
2022-07-27T23:42:13.792Z,99117.19
2022-07-27T23:45:18.573Z,99120.53
2022-07-27T23:48:25.030Z,99126.56
2022-07-27T23:51:29.472Z,99133.03
2022-07-27T23:54:33.053Z,99127.13
2022-07-27T23:57:36.461Z,99141.69
